Duffield, United Kingdom
Current Conditions -  °F | °C
As of 4:50 PM on Saturday 25 Oct 2014 (Local Time) from EGNX Reporting Station
Broken Clouds Broken Clouds  
Wind Chill: 57°   Ceiling: 3300
Heat Index: 57°   Visibility: 6mi
Dew Point: 48°   Wind: 15mph
Humidity: 72%   Direction: 220°SW
Pressure: 29.97"   Gusts: NA
Location:  52.99°N, 1.49°W
Report Text: EGNX 251550Z 22013KT 9999 FEW027 BKN033 14/09 Q1015
Loading
Personal Weather Stations






























Interactive Weather Map
Tropical Storm Tracking
New forecast layout! Learn more

10-Day Weather Forecast

Advertisements
Track Severe Weather on mobile